Terminal Aerodrome Forecast
Issued by NWS Sioux Falls, SD

Home | Current Version | Previous Version | Text Only | Print | Product List | Glossary On
Versions: 1 2 3 4 5 6 7 8 9 10 11 12 13 14 15 16 17 18 19 20 21 22 23 24 25 26 27 28 29 30 31 32 33 34 35 36 37 38
000
FTUS43 KFSD 291133
TAFSUX
TAF
KSUX 291133Z 2912/3012 02005KT P6SM SCT010 OVC022
      TEMPO 2912/2914 BKN010
     FM291400 03007KT P6SM OVC010
     FM291800 07012KT P6SM OVC018
     FM292300 08011KT P6SM BKN022
     FM300500 08012G18KT 6SM RA OVC020
     FM300900 07016G25KT 3SM RA OVC007=

USA.gov is the U.S. government's official web portal to all federal, state and local government web resources and services.